createdAt,value
2022-09-24T00:01:39.370Z,55.53
2022-09-24T00:04:12.897Z,55.59
2022-09-24T00:06:46.863Z,55.64
2022-09-24T00:09:22.323Z,55.69
2022-09-24T00:11:53.779Z,55.91
2022-09-24T00:14:24.529Z,55.82
2022-09-24T00:16:54.163Z,55.90
2022-09-24T00:19:23.988Z,55.97
2022-09-24T00:21:53.538Z,56.05
2022-09-24T00:24:41.231Z,56.10
2022-09-24T00:27:13.411Z,56.10
2022-09-24T00:29:44.456Z,56.23
2022-09-24T00:32:13.867Z,56.24
2022-09-24T00:34:44.348Z,56.20
2022-09-24T00:37:13.436Z,56.36
2022-09-24T00:39:43.701Z,56.60
2022-09-24T00:42:14.192Z,56.79
2022-09-24T00:44:45.748Z,56.49
2022-09-24T00:47:57.734Z,56.43
2022-09-24T00:50:35.901Z,56.37
2022-09-24T00:53:15.756Z,56.35
2022-09-24T00:55:50.866Z,56.39
2022-09-24T00:58:19.885Z,56.79
2022-09-24T01:00:53.971Z,56.81
2022-09-24T01:03:27.202Z,56.96
2022-09-24T01:05:57.970Z,56.94
2022-09-24T01:08:30.364Z,57.09
2022-09-24T01:11:20.007Z,57.01
2022-09-24T01:14:11.716Z,56.77
2022-09-24T01:17:13.265Z,56.85
2022-09-24T01:20:14.887Z,56.71
2022-09-24T01:23:08.748Z,56.75
2022-09-24T01:26:05.631Z,56.64
2022-09-24T01:29:21.154Z,56.88
2022-09-24T01:32:32.351Z,56.93
2022-09-24T01:35:18.232Z,57.16
2022-09-24T01:37:54.470Z,57.20
2022-09-24T01:40:28.033Z,57.24
2022-09-24T01:43:01.541Z,57.36
2022-09-24T01:45:32.302Z,57.33
2022-09-24T01:48:04.862Z,57.18
2022-09-24T01:50:42.696Z,57.57
2022-09-24T01:53:20.404Z,57.63
2022-09-24T01:55:53.958Z,57.49
2022-09-24T01:58:33.879Z,57.61
2022-09-24T02:01:08.725Z,57.77
2022-09-24T02:03:46.030Z,57.74
2022-09-24T02:06:34.791Z,58.08
2022-09-24T02:09:05.717Z,58.30
2022-09-24T02:11:37.583Z,58.45
2022-09-24T02:14:13.437Z,58.57
2022-09-24T02:16:47.552Z,58.66
2022-09-24T02:19:22.393Z,58.25
2022-09-24T02:21:53.094Z,58.29
2022-09-24T02:24:45.978Z,58.14
2022-09-24T02:27:16.490Z,58.18
2022-09-24T02:29:46.610Z,58.42
2022-09-24T02:32:20.231Z,58.51
2022-09-24T02:35:03.035Z,58.53
2022-09-24T02:37:37.160Z,58.70
2022-09-24T02:40:09.662Z,58.75
2022-09-24T02:42:41.511Z,58.63
2022-09-24T02:45:12.419Z,58.71
2022-09-24T02:47:42.654Z,58.70
2022-09-24T02:50:13.596Z,58.66
2022-09-24T02:52:42.995Z,58.68
2022-09-24T02:55:13.715Z,58.51
2022-09-24T02:57:42.667Z,58.78
2022-09-24T03:00:14.942Z,58.79
2022-09-24T03:02:45.660Z,58.74
2022-09-24T03:05:18.618Z,58.83
2022-09-24T03:07:48.545Z,58.83
2022-09-24T03:10:19.501Z,59.15
2022-09-24T03:12:48.953Z,58.92
2022-09-24T03:15:44.989Z,59.03
2022-09-24T03:18:16.672Z,59.18
2022-09-24T03:20:56.088Z,59.07
2022-09-24T03:23:25.512Z,59.25
2022-09-24T03:25:58.581Z,59.26
2022-09-24T03:28:32.244Z,59.30
2022-09-24T03:31:02.016Z,59.46
2022-09-24T03:33:33.209Z,59.50
2022-09-24T03:36:31.332Z,59.55
2022-09-24T03:39:01.766Z,59.48
2022-09-24T03:41:31.310Z,59.65
2022-09-24T03:44:01.591Z,59.62
2022-09-24T03:46:30.822Z,59.57
2022-09-24T03:49:05.541Z,59.57
2022-09-24T03:51:34.490Z,59.77
2022-09-24T03:54:06.286Z,59.83
2022-09-24T03:56:36.695Z,59.93
2022-09-24T03:59:07.043Z,59.95
2022-09-24T04:01:37.814Z,60.03
2022-09-24T04:04:07.820Z,60.00
2022-09-24T04:06:36.760Z,60.27
2022-09-24T04:09:07.639Z,60.39
2022-09-24T04:11:37.143Z,60.54
2022-09-24T04:14:08.097Z,60.38
2022-09-24T04:16:37.141Z,60.47
2022-09-24T04:19:08.563Z,60.49
2022-09-24T04:21:37.388Z,60.35
2022-09-24T04:24:08.064Z,60.25
2022-09-24T04:26:37.104Z,60.21
2022-09-24T04:29:09.335Z,60.08
2022-09-24T04:31:40.955Z,60.11
2022-09-24T04:34:11.811Z,60.21
2022-09-24T04:36:40.619Z,60.21
2022-09-24T04:39:09.673Z,60.29
2022-09-24T04:41:44.391Z,60.20
2022-09-24T04:44:15.044Z,60.32
2022-09-24T04:46:44.036Z,60.22
2022-09-24T04:49:13.098Z,60.30
2022-09-24T04:51:43.168Z,60.40
2022-09-24T04:54:13.862Z,60.49
2022-09-24T04:56:44.874Z,60.72
2022-09-24T04:59:14.726Z,60.63
2022-09-24T05:01:44.034Z,60.44
2022-09-24T05:04:13.167Z,60.62
2022-09-24T05:06:42.616Z,60.66
2022-09-24T05:09:12.959Z,60.38
2022-09-24T05:11:42.929Z,60.43
2022-09-24T05:15:02.668Z,60.46
2022-09-24T05:17:32.017Z,60.41
2022-09-24T05:20:03.917Z,60.95
2022-09-24T05:22:32.999Z,60.61
2022-09-24T05:25:04.352Z,60.48
2022-09-24T05:27:36.285Z,60.73
2022-09-24T05:30:06.743Z,60.76
2022-09-24T05:32:38.460Z,60.96
2022-09-24T05:35:10.990Z,61.04
2022-09-24T05:37:41.900Z,60.96
2022-09-24T05:40:30.098Z,61.35
2022-09-24T05:43:02.476Z,61.04
2022-09-24T05:45:33.934Z,61.39
2022-09-24T05:48:02.699Z,61.27
2022-09-24T05:50:33.526Z,61.10
2022-09-24T05:53:04.195Z,61.24
2022-09-24T05:55:33.854Z,60.79
2022-09-24T05:58:13.916Z,60.66
2022-09-24T06:00:45.974Z,60.62
2022-09-24T06:03:17.127Z,60.48
2022-09-24T06:05:50.192Z,60.74
2022-09-24T06:08:21.915Z,60.81
2022-09-24T06:10:51.563Z,60.63
2022-09-24T06:14:41.389Z,60.54
2022-09-24T06:17:11.374Z,60.36
2022-09-24T06:19:41.081Z,60.35
2022-09-24T06:22:12.102Z,60.53
2022-09-24T06:24:41.630Z,60.32
2022-09-24T06:27:12.887Z,60.37
2022-09-24T06:29:42.152Z,59.93
2022-09-24T06:32:12.494Z,59.18
2022-09-24T06:34:41.898Z,58.72
2022-09-24T06:37:15.436Z,58.49
2022-09-24T06:39:45.483Z,58.57
2022-09-24T06:42:16.387Z,57.92
2022-09-24T06:44:45.361Z,56.51
2022-09-24T06:47:14.178Z,55.66
2022-09-24T06:49:43.838Z,55.33
2022-09-24T06:52:12.727Z,55.52
2022-09-24T06:54:41.877Z,55.06
2022-09-24T06:57:12.756Z,54.56
2022-09-24T06:59:42.180Z,53.76
2022-09-24T07:02:12.945Z,52.86
2022-09-24T07:04:42.539Z,52.49
2022-09-24T07:07:30.713Z,52.00
2022-09-24T07:10:03.394Z,52.00
2022-09-24T07:12:35.024Z,52.09
2022-09-24T07:15:31.677Z,51.84
2022-09-24T07:18:00.627Z,51.29
2022-09-24T07:20:29.692Z,51.69
2022-09-24T07:22:58.606Z,52.25
2022-09-24T07:25:27.372Z,52.75
2022-09-24T07:27:56.262Z,52.77
2022-09-24T07:30:27.223Z,53.22
2022-09-24T07:32:57.119Z,53.89
2022-09-24T07:35:28.182Z,53.91
2022-09-24T07:38:23.760Z,53.52
2022-09-24T07:41:01.431Z,53.42
2022-09-24T07:43:32.452Z,52.88
2022-09-24T07:46:03.336Z,51.94
2022-09-24T07:48:33.559Z,51.11
2022-09-24T07:51:02.571Z,50.47
2022-09-24T07:53:32.212Z,49.92
2022-09-24T07:56:02.898Z,49.70
2022-09-24T07:58:32.471Z,50.15
2022-09-24T08:01:04.902Z,49.80
2022-09-24T08:03:35.401Z,48.91
2022-09-24T08:06:05.436Z,48.61
2022-09-24T08:08:35.722Z,48.90
2022-09-24T08:11:09.010Z,49.09
2022-09-24T08:13:41.272Z,48.64
2022-09-24T08:16:10.259Z,48.26
2022-09-24T08:18:42.447Z,47.66
2022-09-24T08:21:15.855Z,47.62
2022-09-24T08:23:48.428Z,47.39
2022-09-24T08:26:18.907Z,46.60
2022-09-24T08:28:50.978Z,46.26
2022-09-24T08:31:21.395Z,45.84
2022-09-24T08:33:52.515Z,45.69
2022-09-24T08:36:28.563Z,46.45
2022-09-24T08:38:57.776Z,46.93
2022-09-24T08:42:00.737Z,47.51
2022-09-24T08:45:18.247Z,46.75
2022-09-24T08:47:57.555Z,46.68
2022-09-24T08:50:35.866Z,46.53
2022-09-24T08:53:17.952Z,46.56
2022-09-24T08:55:51.153Z,46.17
2022-09-24T08:58:32.389Z,46.13
2022-09-24T09:01:13.604Z,45.13
2022-09-24T09:04:03.962Z,44.49
2022-09-24T09:06:54.458Z,43.90
2022-09-24T09:09:33.768Z,43.51
2022-09-24T09:12:10.941Z,42.89
2022-09-24T09:14:49.698Z,42.25
2022-09-24T09:17:36.076Z,42.44
2022-09-24T09:20:13.760Z,41.95
2022-09-24T09:22:48.427Z,42.11
2022-09-24T09:25:25.183Z,41.83
2022-09-24T09:28:01.219Z,42.00
2022-09-24T09:30:43.944Z,41.60
2022-09-24T09:33:16.782Z,41.73
2022-09-24T09:35:45.625Z,41.37
2022-09-24T09:38:38.806Z,41.17
2022-09-24T09:41:45.749Z,41.30
2022-09-24T09:44:22.621Z,41.04
2022-09-24T09:47:19.405Z,40.64
2022-09-24T09:49:53.082Z,40.31
2022-09-24T09:52:29.794Z,40.25
2022-09-24T09:55:01.737Z,39.74
2022-09-24T09:57:31.836Z,39.65
2022-09-24T10:00:02.748Z,39.19
2022-09-24T10:02:44.340Z,38.73
2022-09-24T10:05:27.420Z,38.83
2022-09-24T10:08:00.860Z,39.00
2022-09-24T10:10:31.008Z,38.44
2022-09-24T10:13:13.049Z,38.04
2022-09-24T10:16:00.322Z,37.44
2022-09-24T10:18:48.636Z,37.46
2022-09-24T10:21:37.920Z,37.46
2022-09-24T10:24:13.012Z,37.55
2022-09-24T10:26:45.729Z,37.77
2022-09-24T10:29:44.533Z,38.16
2022-09-24T10:32:23.635Z,37.69
2022-09-24T10:35:01.814Z,37.62
2022-09-24T10:37:31.157Z,37.89
2022-09-24T10:40:04.417Z,37.71
2022-09-24T10:42:33.340Z,37.17
2022-09-24T10:45:04.189Z,37.06
2022-09-24T10:47:53.902Z,36.73
2022-09-24T10:50:33.910Z,36.62
2022-09-24T10:53:18.336Z,36.36
2022-09-24T10:56:15.740Z,36.56
2022-09-24T10:59:22.959Z,36.47
2022-09-24T11:02:25.488Z,36.10
2022-09-24T11:05:03.319Z,36.34
2022-09-24T11:08:00.541Z,36.24
2022-09-24T11:10:49.098Z,36.19
2022-09-24T11:13:28.808Z,36.05
2022-09-24T11:16:20.831Z,35.68
2022-09-24T11:19:13.415Z,35.68
2022-09-24T11:22:03.560Z,35.92
2022-09-24T11:25:03.884Z,36.03
2022-09-24T11:27:37.079Z,35.92
2022-09-24T11:30:09.883Z,35.80
2022-09-24T11:32:48.242Z,36.01
2022-09-24T11:35:36.422Z,35.95
2022-09-24T11:38:24.977Z,36.03
2022-09-24T11:41:30.369Z,36.14
2022-09-24T11:44:59.630Z,36.22
2022-09-24T11:47:49.743Z,36.37
2022-09-24T11:50:55.278Z,36.32
2022-09-24T11:53:47.161Z,36.66
2022-09-24T11:56:25.284Z,36.70
2022-09-24T11:59:08.299Z,36.74
2022-09-24T12:01:40.924Z,36.66
2022-09-24T12:04:15.395Z,36.52
2022-09-24T12:07:00.376Z,36.20
2022-09-24T12:09:40.812Z,36.43
2022-09-24T12:12:15.876Z,36.21
2022-09-24T12:15:35.845Z,36.00
2022-09-24T12:18:17.219Z,35.67
2022-09-24T12:21:19.855Z,35.66
2022-09-24T12:23:58.981Z,35.53
2022-09-24T12:26:36.559Z,35.31
2022-09-24T12:29:50.751Z,35.38
2022-09-24T12:32:52.953Z,35.64
2022-09-24T12:35:27.198Z,35.58
2022-09-24T12:38:16.313Z,35.74
2022-09-24T12:41:24.525Z,35.76
2022-09-24T12:44:21.724Z,35.71
2022-09-24T12:46:55.664Z,35.79
2022-09-24T12:49:27.426Z,35.74
2022-09-24T12:52:01.816Z,35.75
2022-09-24T12:54:32.259Z,35.70
2022-09-24T12:57:36.139Z,35.75
2022-09-24T13:00:48.262Z,35.83
2022-09-24T13:03:46.073Z,35.75
2022-09-24T13:06:47.000Z,35.75
2022-09-24T13:09:45.880Z,35.65
2022-09-24T13:12:23.343Z,35.70
2022-09-24T13:15:09.119Z,35.79
2022-09-24T13:17:40.770Z,35.54
2022-09-24T13:20:28.305Z,35.69
2022-09-24T13:23:00.288Z,35.72
2022-09-24T13:25:32.160Z,35.94
2022-09-24T13:28:06.350Z,35.68
2022-09-24T13:30:42.905Z,35.66
2022-09-24T13:33:34.518Z,35.79
2022-09-24T13:36:29.307Z,35.97
2022-09-24T13:39:43.506Z,35.99
2022-09-24T13:42:34.207Z,36.24
2022-09-24T13:45:09.588Z,36.22
2022-09-24T13:47:55.828Z,36.35
2022-09-24T13:50:38.238Z,36.27
2022-09-24T13:53:45.635Z,36.40
2022-09-24T13:56:19.967Z,36.57
2022-09-24T13:58:51.720Z,36.48
2022-09-24T14:01:27.503Z,36.56
2022-09-24T14:04:02.917Z,36.71
2022-09-24T14:06:39.098Z,36.57
2022-09-24T14:09:38.476Z,36.72
2022-09-24T14:12:23.742Z,36.68
2022-09-24T14:15:18.246Z,36.75
2022-09-24T14:18:01.234Z,36.79
2022-09-24T14:20:36.152Z,36.76
2022-09-24T14:23:08.077Z,36.79
2022-09-24T14:25:40.486Z,36.91
2022-09-24T14:28:13.179Z,37.15
2022-09-24T14:30:56.299Z,37.13
2022-09-24T14:33:30.653Z,37.08
2022-09-24T14:36:02.839Z,37.19
2022-09-24T14:38:36.707Z,37.13
2022-09-24T14:41:23.841Z,37.26
2022-09-24T14:44:20.139Z,37.32
2022-09-24T14:46:54.591Z,37.31
2022-09-24T14:49:31.302Z,37.32
2022-09-24T14:52:06.106Z,37.42
2022-09-24T14:54:40.779Z,37.51
2022-09-24T14:57:36.106Z,37.80
2022-09-24T15:00:26.096Z,37.86
2022-09-24T15:03:01.725Z,38.07
2022-09-24T15:05:32.489Z,38.15
2022-09-24T15:08:23.530Z,38.08
2022-09-24T15:10:59.866Z,38.10
2022-09-24T15:13:38.571Z,38.29
2022-09-24T15:16:32.922Z,38.38
2022-09-24T15:19:31.152Z,38.72
2022-09-24T15:22:02.346Z,38.84
2022-09-24T15:24:33.006Z,38.88
2022-09-24T15:27:15.883Z,39.00
2022-09-24T15:29:45.565Z,39.11
2022-09-24T15:32:19.711Z,39.10
2022-09-24T15:34:48.928Z,39.25
2022-09-24T15:37:24.067Z,39.37
2022-09-24T15:39:57.955Z,39.42
2022-09-24T15:42:29.557Z,39.45
2022-09-24T15:45:01.832Z,39.56
2022-09-24T15:47:35.088Z,39.80
2022-09-24T15:50:05.266Z,39.83
2022-09-24T15:52:41.326Z,39.91
2022-09-24T15:55:17.881Z,40.18
2022-09-24T15:57:50.530Z,40.18
2022-09-24T16:00:24.541Z,40.41
2022-09-24T16:02:58.005Z,40.48
2022-09-24T16:05:30.093Z,40.79
2022-09-24T16:08:01.947Z,40.79
2022-09-24T16:10:34.139Z,41.16
2022-09-24T16:13:07.253Z,41.20
2022-09-24T16:16:10.580Z,41.30
2022-09-24T16:18:41.212Z,41.66
2022-09-24T16:21:13.642Z,41.70
2022-09-24T16:23:44.854Z,41.76
2022-09-24T16:26:15.537Z,41.78
2022-09-24T16:28:45.555Z,42.02
2022-09-24T16:31:15.742Z,42.02
2022-09-24T16:33:46.210Z,42.33
2022-09-24T16:36:16.392Z,42.58
2022-09-24T16:38:45.315Z,42.71
2022-09-24T16:41:16.684Z,42.95
2022-09-24T16:43:46.326Z,43.04
2022-09-24T16:46:20.464Z,42.99
2022-09-24T16:48:51.196Z,43.20
2022-09-24T16:51:21.257Z,43.36
2022-09-24T16:53:56.026Z,43.66
2022-09-24T16:56:26.364Z,43.62
2022-09-24T16:58:57.352Z,43.63
2022-09-24T17:01:29.050Z,43.68
2022-09-24T17:04:00.984Z,43.97
2022-09-24T17:06:31.575Z,44.17
2022-09-24T17:09:20.696Z,44.04
2022-09-24T17:11:50.423Z,44.29
2022-09-24T17:14:26.233Z,44.12
2022-09-24T17:16:57.993Z,44.45
2022-09-24T17:19:35.633Z,44.59
2022-09-24T17:22:06.867Z,44.74
2022-09-24T17:24:40.679Z,44.96
2022-09-24T17:27:10.812Z,45.26
2022-09-24T17:29:54.549Z,45.35
2022-09-24T17:32:24.686Z,45.47
2022-09-24T17:34:55.351Z,45.68
2022-09-24T17:37:25.186Z,45.76
2022-09-24T17:39:56.656Z,46.02
2022-09-24T17:42:27.824Z,45.98
2022-09-24T17:45:17.220Z,46.10
2022-09-24T17:48:01.266Z,46.21
2022-09-24T17:50:33.024Z,46.20
2022-09-24T17:53:04.378Z,46.41
2022-09-24T17:55:39.498Z,46.63
2022-09-24T17:58:12.512Z,46.86
2022-09-24T18:00:42.933Z,46.85
2022-09-24T18:03:14.632Z,47.00
2022-09-24T18:05:46.146Z,47.11
2022-09-24T18:08:18.931Z,47.23
2022-09-24T18:11:05.574Z,47.27
2022-09-24T18:13:39.222Z,47.30
2022-09-24T18:16:16.777Z,47.07
2022-09-24T18:18:52.262Z,47.28
2022-09-24T18:21:29.687Z,47.32
2022-09-24T18:24:01.192Z,47.36
2022-09-24T18:26:37.231Z,47.36
2022-09-24T18:29:16.179Z,47.42
2022-09-24T18:32:08.053Z,47.61
2022-09-24T18:34:39.022Z,47.73
2022-09-24T18:37:10.297Z,47.72
2022-09-24T18:39:41.222Z,47.92
2022-09-24T18:42:11.643Z,48.03
2022-09-24T18:44:41.974Z,48.25
2022-09-24T18:47:15.240Z,48.20
2022-09-24T18:49:49.422Z,48.46
2022-09-24T18:52:20.099Z,48.46
2022-09-24T18:54:53.140Z,48.65
2022-09-24T18:57:24.198Z,48.76
2022-09-24T18:59:53.923Z,48.92
2022-09-24T19:02:26.767Z,48.95
2022-09-24T19:04:57.211Z,49.04
2022-09-24T19:07:27.033Z,49.14
2022-09-24T19:10:02.502Z,49.38
2022-09-24T19:12:39.165Z,49.42
2022-09-24T19:15:14.911Z,49.65
2022-09-24T19:17:45.875Z,49.76
2022-09-24T19:20:17.792Z,49.74
2022-09-24T19:23:00.420Z,50.02
2022-09-24T19:25:36.902Z,49.99
2022-09-24T19:28:08.696Z,50.27
2022-09-24T19:30:49.645Z,50.32
2022-09-24T19:33:21.811Z,50.50
2022-09-24T19:36:01.137Z,50.84
2022-09-24T19:38:36.077Z,50.59
2022-09-24T19:41:13.417Z,50.68
2022-09-24T19:43:45.803Z,50.84
2022-09-24T19:46:17.423Z,50.91
2022-09-24T19:48:49.801Z,50.99
2022-09-24T19:51:29.142Z,50.97
2022-09-24T19:54:06.995Z,51.09
2022-09-24T19:56:39.421Z,51.06
2022-09-24T19:59:11.522Z,51.11
2022-09-24T20:01:46.730Z,51.43
2022-09-24T20:04:20.919Z,51.42
2022-09-24T20:06:51.559Z,51.48
2022-09-24T20:09:25.555Z,51.59
2022-09-24T20:11:55.374Z,51.66
2022-09-24T20:14:30.236Z,51.73
2022-09-24T20:17:09.235Z,51.85
2022-09-24T20:19:41.031Z,51.87
2022-09-24T20:22:17.120Z,51.78
2022-09-24T20:24:49.253Z,51.82
2022-09-24T20:27:42.110Z,51.93
2022-09-24T20:30:14.065Z,52.00
2022-09-24T20:32:45.840Z,52.16
2022-09-24T20:35:16.271Z,52.19
2022-09-24T20:37:50.646Z,52.17
2022-09-24T20:40:24.087Z,52.34
2022-09-24T20:42:56.475Z,52.30
2022-09-24T20:45:27.166Z,52.42
2022-09-24T20:47:56.982Z,52.40
2022-09-24T20:50:28.297Z,52.55
2022-09-24T20:52:57.285Z,52.62
2022-09-24T20:55:28.027Z,52.67
2022-09-24T20:57:58.822Z,52.90
2022-09-24T21:00:35.945Z,52.98
2022-09-24T21:03:25.944Z,52.98
2022-09-24T21:06:09.566Z,53.19
2022-09-24T21:08:42.055Z,53.26
2022-09-24T21:11:22.925Z,53.32
2022-09-24T21:14:00.966Z,53.47
2022-09-24T21:16:33.959Z,53.47
2022-09-24T21:19:06.245Z,53.60
2022-09-24T21:21:38.822Z,53.41
2022-09-24T21:24:12.916Z,53.81
2022-09-24T21:26:45.607Z,53.82
2022-09-24T21:29:19.229Z,54.07
2022-09-24T21:31:51.707Z,53.86
2022-09-24T21:34:22.798Z,54.02
2022-09-24T21:36:54.072Z,54.01
2022-09-24T21:39:27.011Z,54.14
2022-09-24T21:41:59.926Z,54.28
2022-09-24T21:44:32.352Z,54.59
2022-09-24T21:47:04.508Z,54.21
2022-09-24T21:49:37.019Z,54.58
2022-09-24T21:52:10.589Z,54.57
2022-09-24T21:54:42.257Z,54.21
2022-09-24T21:57:12.424Z,54.42
2022-09-24T22:00:04.606Z,54.53
2022-09-24T22:02:34.909Z,54.71
2022-09-24T22:05:09.287Z,54.70
2022-09-24T22:07:40.857Z,54.70
2022-09-24T22:10:14.203Z,54.84
2022-09-24T22:12:47.068Z,54.96
2022-09-24T22:15:21.896Z,54.82
2022-09-24T22:17:51.305Z,55.00
2022-09-24T22:20:24.573Z,54.93
2022-09-24T22:22:57.126Z,54.97
2022-09-24T22:25:31.653Z,55.10
2022-09-24T22:28:03.365Z,55.30
2022-09-24T22:30:32.974Z,55.21
2022-09-24T22:33:03.142Z,55.45
2022-09-24T22:35:53.473Z,55.37
2022-09-24T22:38:26.326Z,55.28
2022-09-24T22:41:15.559Z,55.45
2022-09-24T22:44:10.506Z,55.46
2022-09-24T22:46:41.766Z,55.78
2022-09-24T22:49:13.695Z,55.57
2022-09-24T22:51:44.112Z,55.50
2022-09-24T22:54:15.278Z,55.62
2022-09-24T22:56:44.210Z,55.89
2022-09-24T22:59:14.770Z,55.63
2022-09-24T23:01:47.229Z,55.78
2022-09-24T23:04:18.141Z,55.58
2022-09-24T23:06:50.623Z,55.71
2022-09-24T23:09:23.711Z,55.83
2022-09-24T23:11:54.372Z,55.86
2022-09-24T23:14:27.893Z,55.86
2022-09-24T23:17:00.241Z,55.95
2022-09-24T23:19:49.430Z,55.74
2022-09-24T23:22:21.093Z,56.10
2022-09-24T23:24:53.958Z,55.98
2022-09-24T23:27:27.389Z,56.16
2022-09-24T23:30:00.366Z,56.24
2022-09-24T23:32:30.974Z,56.17
2022-09-24T23:35:02.414Z,56.06
2022-09-24T23:37:33.391Z,56.19
2022-09-24T23:40:03.812Z,56.30
2022-09-24T23:42:35.341Z,56.32
2022-09-24T23:45:05.633Z,56.14
2022-09-24T23:47:36.913Z,56.39
2022-09-24T23:50:06.685Z,56.35
2022-09-24T23:52:35.880Z,56.18
2022-09-24T23:55:07.750Z,56.26
2022-09-24T23:57:38.688Z,56.31
